Metar z pełnej godziny Komunikat METAR ze strony awiacja.imgw.pl Metar G00 EPRZ METAR EPRZ 200400Z 26010KT 9999 SCT043 03/02 Q1016 =